createdAt,value
2019-02-18T00:02:19.113Z,5.70
2019-02-18T00:05:18.096Z,5.35
2019-02-18T00:08:21.100Z,5.08
2019-02-18T00:11:23.882Z,4.80
2019-02-18T00:14:26.408Z,4.40
2019-02-18T00:17:29.450Z,7.10
2019-02-18T00:20:31.992Z,5.35
2019-02-18T00:23:34.507Z,3.98
2019-02-18T00:26:37.286Z,3.87
2019-02-18T00:29:40.327Z,5.50
2019-02-18T00:32:43.121Z,5.15
2019-02-18T00:35:45.639Z,4.75
2019-02-18T00:38:48.173Z,4.47
2019-02-18T00:41:51.720Z,4.97
2019-02-18T00:44:56.907Z,4.92
2019-02-18T00:47:54.214Z,4.42
2019-02-18T00:50:58.023Z,6.33
2019-02-18T00:54:00.550Z,3.80
2019-02-18T00:57:03.334Z,3.70
2019-02-18T01:00:06.120Z,4.00
2019-02-18T01:03:09.929Z,5.08
2019-02-18T01:06:12.966Z,3.62
2019-02-18T01:09:16.008Z,4.22
2019-02-18T01:12:18.795Z,4.03
2019-02-18T01:15:21.321Z,4.75
2019-02-18T01:18:23.847Z,3.75
2019-02-18T01:21:26.639Z,5.50
2019-02-18T01:24:29.418Z,4.83
2019-02-18T01:27:32.202Z,6.60
2019-02-18T01:30:34.732Z,4.67
2019-02-18T01:33:37.768Z,4.42
2019-02-18T01:36:40.555Z,4.12
2019-02-18T01:39:39.510Z,5.00
2019-02-18T01:42:42.306Z,3.72
2019-02-18T01:45:45.577Z,6.20
2019-02-18T01:48:48.361Z,4.95
2019-02-18T01:51:51.150Z,4.50
2019-02-18T01:54:54.960Z,3.83
2019-02-18T01:57:57.485Z,4.03
2019-02-18T02:01:00.270Z,4.67
2019-02-18T02:04:02.795Z,4.10
2019-02-18T02:07:05.576Z,4.50
2019-02-18T02:10:08.615Z,5.55
2019-02-18T02:13:11.150Z,4.70
2019-02-18T02:16:13.940Z,4.90
2019-02-18T02:19:16.710Z,3.98
2019-02-18T02:22:18.984Z,5.33
2019-02-18T02:25:22.535Z,4.53
2019-02-18T02:28:25.324Z,4.65
2019-02-18T02:31:28.103Z,4.67
2019-02-18T02:34:30.649Z,3.95
2019-02-18T02:37:34.445Z,5.08
2019-02-18T02:40:36.971Z,4.30
2019-02-18T02:43:40.008Z,4.10
2019-02-18T02:46:43.047Z,4.20
2019-02-18T02:49:45.842Z,5.05
2019-02-18T02:52:48.107Z,5.72
2019-02-18T02:55:50.889Z,4.95
2019-02-18T02:58:53.933Z,4.30
2019-02-18T03:01:56.967Z,5.35
2019-02-18T03:04:59.752Z,3.87
2019-02-18T03:08:02.794Z,3.90
2019-02-18T03:11:05.581Z,3.85
2019-02-18T03:14:08.362Z,6.53
2019-02-18T03:17:11.149Z,5.20
2019-02-18T03:20:13.673Z,3.55
2019-02-18T03:23:16.205Z,4.05
2019-02-18T03:26:19.502Z,5.42
2019-02-18T03:29:36.617Z,4.85
2019-02-18T03:32:38.901Z,5.28
2019-02-18T03:35:49.350Z,3.85
2019-02-18T03:38:52.140Z,4.75
2019-02-18T03:41:55.180Z,4.35
2019-02-18T03:44:58.215Z,4.20
2019-02-18T03:48:01.259Z,3.80
2019-02-18T03:51:04.040Z,5.75
2019-02-18T03:54:07.082Z,6.67
2019-02-18T03:57:09.610Z,6.28
2019-02-18T04:00:12.400Z,6.25
2019-02-18T04:03:19.274Z,6.50
2019-02-18T04:06:22.066Z,6.05
2019-02-18T04:09:24.591Z,5.78
2019-02-18T04:12:27.634Z,6.40
2019-02-18T04:15:30.168Z,4.75
2019-02-18T04:18:32.943Z,4.08
2019-02-18T04:21:35.480Z,5.83
2019-02-18T04:24:38.000Z,6.90
2019-02-18T04:27:40.776Z,6.30
2019-02-18T04:30:43.649Z,5.95
2019-02-18T04:33:54.032Z,5.95
2019-02-18T04:36:57.068Z,6.40
2019-02-18T04:39:59.857Z,6.78
2019-02-18T04:43:02.659Z,6.53
2019-02-18T04:46:05.417Z,6.72
2019-02-18T04:49:08.223Z,6.45
2019-02-18T04:52:10.727Z,6.10
2019-02-18T04:55:15.100Z,5.85
2019-02-18T04:58:15.787Z,7.30
2019-02-18T05:01:19.080Z,3.90
2019-02-18T05:04:21.865Z,5.87
2019-02-18T05:07:24.394Z,6.47
2019-02-18T05:10:26.920Z,7.20
2019-02-18T05:13:29.453Z,6.17
2019-02-18T05:16:32.235Z,6.62
2019-02-18T05:19:31.689Z,6.62
2019-02-18T05:22:33.962Z,7.00
2019-02-18T05:25:36.488Z,3.47
2019-02-18T05:28:40.042Z,6.72
2019-02-18T05:31:43.341Z,7.72
2019-02-18T05:34:46.121Z,7.80
2019-02-18T05:37:49.674Z,6.80
2019-02-18T05:40:48.865Z,3.58
2019-02-18T05:43:52.432Z,5.80
2019-02-18T05:46:56.234Z,8.35
2019-02-18T05:49:59.020Z,8.43
2019-02-18T05:53:09.488Z,7.22
2019-02-18T05:56:12.008Z,4.10
2019-02-18T05:59:14.798Z,7.35
2019-02-18T06:02:17.586Z,7.72
2019-02-18T06:05:20.620Z,6.55
2019-02-18T06:08:24.684Z,8.95
2019-02-18T06:11:28.237Z,8.48
2019-02-18T06:14:31.017Z,7.05
2019-02-18T06:17:33.545Z,7.62
2019-02-18T06:20:36.331Z,7.70
2019-02-18T06:23:39.885Z,7.87
2019-02-18T06:26:42.412Z,5.45
2019-02-18T06:29:45.967Z,4.15
2019-02-18T06:32:57.194Z,4.80
2019-02-18T06:36:00.488Z,5.60
2019-02-18T06:39:03.534Z,4.10
2019-02-18T06:42:06.312Z,4.17
2019-02-18T06:45:09.097Z,6.67
2019-02-18T06:48:11.673Z,4.03
2019-02-18T06:51:16.963Z,6.83
2019-02-18T06:54:17.191Z,3.80
2019-02-18T06:57:19.725Z,3.20
2019-02-18T07:00:22.761Z,3.27
2019-02-18T07:03:25.546Z,3.60
2019-02-18T07:06:28.077Z,6.15
2019-02-18T07:09:31.880Z,4.30
2019-02-18T07:12:34.409Z,3.52
2019-02-18T07:15:36.948Z,4.25
2019-02-18T07:18:39.462Z,3.42
2019-02-18T07:21:42.249Z,5.37
2019-02-18T07:24:45.800Z,4.37
2019-02-18T07:27:48.329Z,3.30
2019-02-18T07:30:54.439Z,3.67
2019-02-18T07:33:56.971Z,3.45
2019-02-18T07:36:59.499Z,3.55
2019-02-18T07:40:02.543Z,5.22
2019-02-18T07:43:05.329Z,3.60
2019-02-18T07:46:08.107Z,4.92
2019-02-18T07:49:10.889Z,4.15
2019-02-18T07:52:13.671Z,4.12
2019-02-18T07:55:18.760Z,4.15
2019-02-18T07:58:21.545Z,5.00
2019-02-18T08:01:25.353Z,4.35
2019-02-18T08:04:28.139Z,3.87
2019-02-18T08:07:31.176Z,5.42
2019-02-18T08:10:33.710Z,3.85
2019-02-18T08:13:36.233Z,6.50
2019-02-18T08:16:38.760Z,5.15
2019-02-18T08:19:41.293Z,6.65
2019-02-18T08:22:43.823Z,4.10
2019-02-18T08:25:46.599Z,4.83
2019-02-18T08:28:49.128Z,4.12
2019-02-18T08:31:52.688Z,4.33
2019-02-18T08:34:55.463Z,4.75
2019-02-18T08:37:58.253Z,5.90
2019-02-18T08:41:01.293Z,4.92
2019-02-18T08:44:04.104Z,3.95
2019-02-18T08:47:07.116Z,4.65
2019-02-18T08:50:09.899Z,4.62
2019-02-18T08:53:12.701Z,4.53
2019-02-18T08:56:16.488Z,5.08
2019-02-18T08:59:19.019Z,4.62
2019-02-18T09:02:22.062Z,5.60
2019-02-18T09:05:21.064Z,3.52
2019-02-18T09:08:23.787Z,5.00
2019-02-18T09:11:26.577Z,4.40
2019-02-18T09:14:29.354Z,3.65
2019-02-18T09:17:32.147Z,4.45
2019-02-18T09:20:34.664Z,4.37
2019-02-18T09:23:37.467Z,4.25
2019-02-18T09:26:40.491Z,3.52
2019-02-18T09:29:43.273Z,4.67
2019-02-18T09:32:45.799Z,3.77
2019-02-18T09:35:48.590Z,4.25
2019-02-18T09:38:51.367Z,4.50
2019-02-18T09:41:53.896Z,3.40
2019-02-18T09:44:57.703Z,3.27
2019-02-18T09:48:00.758Z,3.45
2019-02-18T09:51:03.533Z,2.80
2019-02-18T09:54:06.314Z,3.33
2019-02-18T09:57:08.840Z,3.12
2019-02-18T10:00:11.374Z,3.30
2019-02-18T10:03:14.157Z,2.87
2019-02-18T10:06:16.935Z,2.77
2019-02-18T10:09:19.721Z,2.77
2019-02-18T10:12:22.508Z,3.42
2019-02-18T10:15:25.031Z,3.52
2019-02-18T10:18:27.817Z,2.42
2019-02-18T10:21:31.626Z,2.87
2019-02-18T10:24:34.670Z,3.12
2019-02-18T10:27:40.010Z,3.08
2019-02-18T10:30:43.052Z,2.60
2019-02-18T10:33:45.323Z,2.52
2019-02-18T10:36:48.876Z,2.92
2019-02-18T10:39:45.519Z,1.98
2019-02-18T10:42:48.041Z,2.83
2019-02-18T10:45:50.830Z,2.47
2019-02-18T10:48:53.867Z,2.58
2019-02-18T10:51:57.673Z,2.58
2019-02-18T10:54:59.162Z,2.17
2019-02-18T10:57:59.403Z,2.40
2019-02-18T11:01:01.933Z,1.65
2019-02-18T11:04:06.001Z,2.58
2019-02-18T11:07:08.780Z,2.30
2019-02-18T11:10:19.510Z,2.58
2019-02-18T11:13:23.053Z,2.80
2019-02-18T11:16:25.324Z,2.67
2019-02-18T11:19:28.106Z,2.08
2019-02-18T11:22:30.889Z,2.52
2019-02-18T11:25:33.684Z,2.25
2019-02-18T11:28:36.211Z,2.45
2019-02-18T11:31:38.991Z,2.08
2019-02-18T11:34:42.027Z,2.10
2019-02-18T11:37:44.812Z,1.92
2019-02-18T11:40:48.615Z,1.98
2019-02-18T11:43:51.161Z,2.33
2019-02-18T11:46:54.187Z,2.00
2019-02-18T11:49:56.464Z,2.20
2019-02-18T11:52:59.496Z,1.62
2019-02-18T11:56:02.037Z,2.30
2019-02-18T11:59:04.808Z,1.80
2019-02-18T12:02:07.337Z,2.40
2019-02-18T12:05:10.381Z,2.02
2019-02-18T12:11:37.942Z,2.10
2019-02-18T12:14:31.784Z,1.77
2019-02-18T12:17:34.583Z,2.00
2019-02-18T12:20:37.352Z,2.20
2019-02-18T12:23:40.145Z,1.80
2019-02-18T12:26:42.671Z,2.22
2019-02-18T12:29:45.447Z,2.37
2019-02-18T12:32:48.743Z,2.67
2019-02-18T12:35:51.533Z,2.05
2019-02-18T12:38:54.325Z,2.05
2019-02-18T12:42:52.391Z,2.02
2019-02-18T12:45:55.175Z,2.33
2019-02-18T12:48:57.963Z,2.12
2019-02-18T12:52:03.328Z,2.20
2019-02-18T12:55:06.392Z,1.80
2019-02-18T12:58:08.881Z,2.58
2019-02-18T13:01:12.423Z,2.40
2019-02-18T13:04:14.965Z,1.85
2019-02-18T13:07:18.505Z,1.70
2019-02-18T13:10:22.322Z,2.00
2019-02-18T13:13:24.838Z,1.60
2019-02-18T13:16:27.370Z,2.17
2019-02-18T13:19:30.156Z,1.90
2019-02-18T13:22:32.679Z,2.20
2019-02-18T13:25:35.208Z,1.85
2019-02-18T13:28:38.248Z,1.98
2019-02-18T13:31:40.776Z,2.10
2019-02-18T13:34:43.310Z,1.57
2019-02-18T13:37:46.093Z,1.87
2019-02-18T13:40:48.875Z,2.15
2019-02-18T13:43:51.662Z,2.05
2019-02-18T13:46:54.184Z,1.80
2019-02-18T13:49:57.991Z,1.82
2019-02-18T13:53:01.031Z,2.08
2019-02-18T13:56:03.834Z,2.47
2019-02-18T13:59:06.599Z,2.10
2019-02-18T14:02:09.127Z,2.15
2019-02-18T14:05:11.658Z,2.35
2019-02-18T14:08:14.441Z,1.40
2019-02-18T14:11:17.483Z,1.60
2019-02-18T14:14:16.572Z,1.77
2019-02-18T14:17:19.481Z,1.80
2019-02-18T14:20:22.246Z,1.92
2019-02-18T14:23:24.777Z,1.40
2019-02-18T14:26:27.307Z,1.72
2019-02-18T14:29:30.087Z,1.50
2019-02-18T14:32:32.615Z,1.65
2019-02-18T14:35:35.400Z,1.67
2019-02-18T14:38:38.183Z,1.77
2019-02-18T14:41:41.994Z,1.60
2019-02-18T14:44:44.791Z,1.50
2019-02-18T14:47:48.330Z,2.20
2019-02-18T14:50:56.480Z,1.80
2019-02-18T14:53:53.639Z,1.98
2019-02-18T14:56:56.686Z,2.40
2019-02-18T14:59:59.978Z,1.72
2019-02-18T15:03:02.766Z,2.10
2019-02-18T15:06:05.289Z,1.80
2019-02-18T15:09:10.635Z,2.12
2019-02-18T15:12:13.417Z,2.47
2019-02-18T15:15:16.455Z,1.70
2019-02-18T15:18:19.244Z,2.10
2019-02-18T15:21:22.025Z,2.00
2019-02-18T15:24:24.809Z,1.45
2019-02-18T15:27:30.195Z,1.85
2019-02-18T15:30:32.679Z,2.00
2019-02-18T15:33:35.467Z,2.47
2019-02-18T15:36:38.517Z,1.85
2019-02-18T15:39:42.316Z,1.72
2019-02-18T15:42:45.096Z,1.85
2019-02-18T15:45:43.786Z,1.80
2019-02-18T15:48:46.576Z,2.72
2019-02-18T15:51:49.357Z,2.42
2019-02-18T15:54:51.880Z,2.10
2019-02-18T15:57:54.922Z,2.00
2019-02-18T16:00:59.751Z,2.80
2019-02-18T16:04:03.816Z,2.75
2019-02-18T16:07:06.600Z,3.55
2019-02-18T16:10:09.640Z,2.25
2019-02-18T16:13:12.425Z,2.45
2019-02-18T16:16:15.212Z,2.62
2019-02-18T16:19:18.020Z,1.90
2019-02-18T16:22:21.034Z,2.42
2019-02-18T16:25:23.816Z,3.00
2019-02-18T16:31:41.672Z,2.75
2019-02-18T16:34:44.717Z,3.02
2019-02-18T16:37:47.241Z,2.10
2019-02-18T16:40:50.288Z,1.80
2019-02-18T16:43:53.063Z,1.85
2019-02-18T16:46:55.592Z,2.62
2019-02-18T16:49:58.375Z,2.40
2019-02-18T16:53:01.418Z,2.25
2019-02-18T16:56:03.961Z,2.20
2019-02-18T16:59:06.733Z,2.75
2019-02-18T17:02:10.028Z,2.25
2019-02-18T17:05:12.811Z,2.40
2019-02-18T17:08:15.337Z,2.37
2019-02-18T17:11:17.863Z,2.42
2019-02-18T17:14:17.400Z,2.95
2019-02-18T17:17:20.368Z,2.22
2019-02-18T17:20:23.402Z,2.55
2019-02-18T17:23:26.187Z,2.70
2019-02-18T17:26:28.970Z,2.05
2019-02-18T17:29:31.750Z,2.65
2019-02-18T17:32:34.289Z,1.62
2019-02-18T17:35:34.542Z,2.90
2019-02-18T17:38:37.300Z,3.20
2019-02-18T17:41:40.075Z,3.30
2019-02-18T17:44:42.866Z,3.37
2019-02-18T17:47:45.896Z,3.15
2019-02-18T17:50:48.169Z,3.12
2019-02-18T17:53:50.696Z,4.33
2019-02-18T17:57:06.547Z,3.50
2019-02-18T18:00:09.320Z,3.08
2019-02-18T18:03:12.112Z,2.62
2019-02-18T18:06:14.634Z,3.42
2019-02-18T18:09:20.499Z,2.25
2019-02-18T18:12:23.275Z,3.80
2019-02-18T18:15:25.820Z,2.70
2019-02-18T18:18:28.583Z,3.30
2019-02-18T18:21:36.491Z,3.80
2019-02-18T18:24:39.019Z,3.98
2019-02-18T18:27:41.802Z,5.25
2019-02-18T18:30:44.588Z,4.67
2019-02-18T18:33:47.625Z,5.15
2019-02-18T18:36:50.407Z,5.15
2019-02-18T18:40:00.623Z,3.55
2019-02-18T18:43:03.143Z,4.33
2019-02-18T18:46:06.697Z,4.40
2019-02-18T18:49:09.742Z,5.20
2019-02-18T18:52:12.262Z,4.53
2019-02-18T18:55:15.303Z,3.05
2019-02-18T18:58:18.086Z,3.70
2019-02-18T19:01:22.159Z,2.70
2019-02-18T19:04:24.426Z,4.47
2019-02-18T19:07:27.465Z,3.10
2019-02-18T19:10:30.511Z,4.70
2019-02-18T19:13:41.749Z,3.42
2019-02-18T19:16:37.608Z,3.12
2019-02-18T19:19:40.398Z,3.55
2019-02-18T19:22:46.245Z,4.10
2019-02-18T19:25:49.801Z,3.08
2019-02-18T19:28:52.584Z,3.35
2019-02-18T19:31:55.631Z,3.33
2019-02-18T19:34:58.153Z,3.20
2019-02-18T19:38:03.497Z,3.90
2019-02-18T19:41:06.279Z,3.47
2019-02-18T19:44:09.323Z,3.92
2019-02-18T19:47:11.848Z,4.95
2019-02-18T19:50:14.642Z,4.67
2019-02-18T19:53:17.680Z,5.22
2019-02-18T19:56:20.978Z,3.80
2019-02-18T19:59:23.495Z,2.65
2019-02-18T20:02:29.099Z,3.12
2019-02-18T20:05:31.880Z,3.00
2019-02-18T20:08:34.667Z,3.95
2019-02-18T20:11:37.451Z,5.58
2019-02-18T20:14:40.237Z,5.97
2019-02-18T20:17:43.023Z,6.50
2019-02-18T20:20:55.530Z,4.78
2019-02-18T20:23:58.570Z,6.05
2019-02-18T20:27:01.355Z,3.92
2019-02-18T20:30:04.143Z,5.90
2019-02-18T20:33:06.922Z,6.17
2019-02-18T20:36:11.239Z,4.22
2019-02-18T20:39:13.771Z,5.92
2019-02-18T20:42:17.110Z,4.30
2019-02-18T20:45:19.101Z,6.10
2019-02-18T20:48:22.121Z,3.85
2019-02-18T20:51:24.908Z,5.08
2019-02-18T20:54:27.688Z,4.53
2019-02-18T20:57:31.241Z,3.87
2019-02-18T21:00:34.026Z,3.50
2019-02-18T21:03:37.067Z,4.92
2019-02-18T21:06:41.391Z,5.55
2019-02-18T21:09:44.440Z,5.20
2019-02-18T21:12:58.987Z,7.10
2019-02-18T21:16:02.562Z,5.92
2019-02-18T21:19:05.070Z,5.85
2019-02-18T21:22:08.108Z,5.97
2019-02-18T21:25:11.150Z,5.58
2019-02-18T21:28:13.675Z,4.83
2019-02-18T21:31:16.203Z,6.50
2019-02-18T21:34:13.095Z,7.97
2019-02-18T21:37:12.006Z,4.87
2019-02-18T21:40:14.823Z,3.98
2019-02-18T21:43:18.120Z,4.97
2019-02-18T21:46:20.652Z,4.45
2019-02-18T21:49:23.693Z,7.03
2019-02-18T21:52:26.728Z,5.60
2019-02-18T21:55:29.513Z,6.53
2019-02-18T21:58:32.808Z,6.67
2019-02-18T22:01:36.873Z,6.55
2019-02-18T22:04:40.683Z,5.72
2019-02-18T22:07:43.208Z,5.50
2019-02-18T22:10:45.997Z,4.53
2019-02-18T22:13:49.030Z,4.20
2019-02-18T22:16:53.097Z,5.33
2019-02-18T22:19:56.134Z,4.62
2019-02-18T22:22:59.181Z,5.17
2019-02-18T22:26:02.215Z,5.03
2019-02-18T22:29:05.263Z,4.62
2019-02-18T22:32:08.039Z,4.42
2019-02-18T22:35:11.082Z,4.50
2019-02-18T22:38:14.120Z,4.40
2019-02-18T22:41:11.592Z,5.08
2019-02-18T22:44:14.568Z,4.83
2019-02-18T22:47:17.609Z,4.70
2019-02-18T22:50:20.653Z,4.87
2019-02-18T22:53:23.435Z,4.83
2019-02-18T22:56:26.217Z,6.60
2019-02-18T22:59:29.271Z,5.10
2019-02-18T23:02:32.553Z,6.62
2019-02-18T23:05:35.590Z,4.80
2019-02-18T23:08:38.375Z,7.72
2019-02-18T23:11:40.902Z,5.05
2019-02-18T23:14:50.274Z,6.85
2019-02-18T23:17:46.727Z,5.28
2019-02-18T23:20:49.552Z,5.62
2019-02-18T23:23:52.559Z,5.25
2019-02-18T23:26:55.592Z,5.90
2019-02-18T23:29:59.145Z,5.20
2019-02-18T23:33:01.929Z,5.70
2019-02-18T23:36:04.713Z,6.70
2019-02-18T23:39:07.757Z,7.97
2019-02-18T23:42:13.612Z,5.45
2019-02-18T23:45:16.647Z,5.17
2019-02-18T23:48:19.178Z,5.58
2019-02-18T23:51:22.218Z,8.80
2019-02-18T23:54:25.003Z,5.15
2019-02-18T23:57:28.047Z,7.75
